createdAt,value
2023-02-11T00:00:44.776Z,2.50
2023-02-11T00:03:11.547Z,2.40
2023-02-11T00:05:38.684Z,2.40
2023-02-11T00:08:05.643Z,2.40
2023-02-11T00:10:32.444Z,2.50
2023-02-11T00:12:59.348Z,2.40
2023-02-11T00:15:26.182Z,2.40
2023-02-11T00:17:52.960Z,2.40
2023-02-11T00:20:20.098Z,2.50
2023-02-11T00:22:47.500Z,2.50
2023-02-11T00:25:14.210Z,2.50
2023-02-11T00:27:41.088Z,2.50
2023-02-11T00:30:08.530Z,2.50
2023-02-11T00:32:35.383Z,2.50
2023-02-11T00:35:02.117Z,2.50
2023-02-11T00:37:29.285Z,2.50
2023-02-11T00:39:56.132Z,2.50
2023-02-11T00:42:22.971Z,2.50
2023-02-11T00:44:49.701Z,2.60
2023-02-11T00:47:16.492Z,2.60
2023-02-11T00:49:43.272Z,2.60
2023-02-11T00:52:10.157Z,2.60
2023-02-11T00:54:36.924Z,2.50
2023-02-11T00:57:04.461Z,2.50
2023-02-11T01:01:58.415Z,2.50
2023-02-11T01:04:25.513Z,2.50
2023-02-11T01:06:52.505Z,2.40
2023-02-11T01:09:21.187Z,2.40
2023-02-11T01:11:48.127Z,2.40
2023-02-11T01:14:15.165Z,2.40
2023-02-11T01:16:41.988Z,2.40
2023-02-11T01:19:09.750Z,2.40
2023-02-11T01:21:36.572Z,2.40
2023-02-11T01:24:03.665Z,2.40
2023-02-11T01:26:30.596Z,2.40
2023-02-11T01:31:27.420Z,2.40
2023-02-11T01:33:54.609Z,2.40
2023-02-11T01:36:21.774Z,2.40
2023-02-11T01:38:50.002Z,2.40
2023-02-11T01:41:16.953Z,2.40
2023-02-11T01:43:46.940Z,2.40
2023-02-11T01:46:32.149Z,2.40
2023-02-11T01:49:18.978Z,2.40
2023-02-11T01:51:58.574Z,2.40
2023-02-11T01:54:47.685Z,2.50
2023-02-11T01:57:22.828Z,2.40
2023-02-11T02:00:17.242Z,2.50
2023-02-11T02:03:05.956Z,2.50
2023-02-11T02:05:45.407Z,2.50
2023-02-11T02:08:21.602Z,2.50
2023-02-11T02:10:53.948Z,2.50
2023-02-11T02:13:21.053Z,2.50
2023-02-11T02:15:52.138Z,2.50
2023-02-11T02:18:35.503Z,2.50
2023-02-11T02:21:30.985Z,2.40
2023-02-11T02:24:14.226Z,2.40
2023-02-11T02:27:01.402Z,2.40
2023-02-11T02:29:53.582Z,2.40
2023-02-11T02:32:35.404Z,2.40
2023-02-11T02:35:30.929Z,2.40
2023-02-11T02:38:40.761Z,2.40
2023-02-11T02:41:15.829Z,2.30
2023-02-11T02:43:46.567Z,2.30
2023-02-11T02:46:26.161Z,2.30
2023-02-11T02:48:53.995Z,2.30
2023-02-11T02:51:39.934Z,2.30
2023-02-11T02:54:43.544Z,2.30
2023-02-11T02:57:32.922Z,2.30
2023-02-11T03:00:14.722Z,2.30
2023-02-11T03:03:00.145Z,2.40
2023-02-11T03:05:55.005Z,2.40
2023-02-11T03:08:39.192Z,2.40
2023-02-11T03:11:07.976Z,2.40
2023-02-11T03:13:37.599Z,2.40
2023-02-11T03:16:11.476Z,2.40
2023-02-11T03:18:42.566Z,2.40
2023-02-11T03:21:12.120Z,2.40
2023-02-11T03:23:53.159Z,2.40
2023-02-11T03:26:43.190Z,2.40
2023-02-11T03:29:26.750Z,2.50
2023-02-11T03:32:04.566Z,2.40
2023-02-11T03:34:40.710Z,2.40
2023-02-11T03:37:21.721Z,2.40
2023-02-11T03:39:57.326Z,2.40
2023-02-11T03:42:30.535Z,2.40
2023-02-11T03:45:06.534Z,2.50
2023-02-11T03:47:36.956Z,2.40
2023-02-11T03:50:07.843Z,2.50
2023-02-11T03:52:36.976Z,2.40
2023-02-11T03:55:09.726Z,2.50
2023-02-11T03:57:36.893Z,2.50
2023-02-11T04:00:05.157Z,2.50
2023-02-11T04:02:34.884Z,2.50
2023-02-11T04:05:03.860Z,2.50
2023-02-11T04:07:30.818Z,2.90
2023-02-11T04:09:57.765Z,2.50
2023-02-11T04:12:26.047Z,2.50
2023-02-11T04:14:52.919Z,2.50
2023-02-11T04:17:21.843Z,2.50
2023-02-11T04:19:48.637Z,2.50
2023-02-11T04:22:15.577Z,2.50
2023-02-11T04:24:44.204Z,2.50
2023-02-11T04:27:12.223Z,2.50
2023-02-11T04:29:39.209Z,2.50
2023-02-11T04:32:07.469Z,2.40
2023-02-11T04:34:34.392Z,2.40
2023-02-11T04:37:01.157Z,2.40
2023-02-11T04:39:28.005Z,2.40
2023-02-11T04:41:57.959Z,2.30
2023-02-11T04:44:24.727Z,2.20
2023-02-11T04:46:52.608Z,2.30
2023-02-11T04:49:19.648Z,2.20
2023-02-11T04:51:49.416Z,2.20
2023-02-11T04:54:17.536Z,2.20
2023-02-11T04:56:46.641Z,2.20
2023-02-11T04:59:15.897Z,2.30
2023-02-11T05:01:43.100Z,2.30
2023-02-11T05:04:10.141Z,2.20
2023-02-11T05:06:39.781Z,2.20
2023-02-11T05:09:06.930Z,2.20
2023-02-11T05:11:34.052Z,2.20
2023-02-11T05:14:01.044Z,2.20
2023-02-11T05:16:28.374Z,2.20
2023-02-11T05:18:55.902Z,2.30
2023-02-11T05:21:23.119Z,2.30
2023-02-11T05:23:50.382Z,2.30
2023-02-11T05:26:20.300Z,2.30
2023-02-11T05:28:47.302Z,2.50
2023-02-11T05:31:14.895Z,2.30
2023-02-11T05:33:42.193Z,2.30
2023-02-11T05:36:11.558Z,2.30
2023-02-11T05:38:39.075Z,2.40
2023-02-11T05:41:07.032Z,2.30
2023-02-11T05:43:35.468Z,2.40
2023-02-11T05:46:04.028Z,2.40
2023-02-11T05:48:31.468Z,2.40
2023-02-11T05:50:58.437Z,2.40
2023-02-11T05:53:26.057Z,2.40
2023-02-11T05:55:53.209Z,2.40
2023-02-11T05:58:20.216Z,2.40
2023-02-11T06:00:47.204Z,2.40
2023-02-11T06:03:14.059Z,2.50
2023-02-11T06:05:42.336Z,2.50
2023-02-11T06:08:09.378Z,2.50
2023-02-11T06:10:36.258Z,2.50
2023-02-11T06:13:04.860Z,2.50
2023-02-11T06:15:31.660Z,2.60
2023-02-11T06:17:59.125Z,2.50
2023-02-11T06:20:27.980Z,2.50
2023-02-11T06:22:54.785Z,2.60
2023-02-11T06:25:21.606Z,2.60
2023-02-11T06:27:48.686Z,2.60
2023-02-11T06:30:15.734Z,2.60
2023-02-11T06:32:45.497Z,2.60
2023-02-11T06:35:14.961Z,2.60
2023-02-11T06:37:42.802Z,2.60
2023-02-11T06:40:10.788Z,2.60
2023-02-11T06:42:39.724Z,2.60
2023-02-11T06:45:09.901Z,2.60
2023-02-11T06:47:37.591Z,2.60
2023-02-11T06:50:08.262Z,2.60
2023-02-11T06:52:36.396Z,2.60
2023-02-11T06:55:04.781Z,2.70
2023-02-11T06:57:32.985Z,2.70
2023-02-11T06:59:59.892Z,2.70
2023-02-11T07:02:28.072Z,2.70
2023-02-11T07:04:55.245Z,2.70
2023-02-11T07:07:23.290Z,2.80
2023-02-11T07:09:50.363Z,2.70
2023-02-11T07:12:17.194Z,2.70
2023-02-11T07:14:44.168Z,2.70
2023-02-11T07:17:11.136Z,2.70
2023-02-11T07:19:39.188Z,2.70
2023-02-11T07:22:05.987Z,2.70
2023-02-11T07:24:32.833Z,2.70
2023-02-11T07:26:59.685Z,2.70
2023-02-11T07:29:26.696Z,2.70
2023-02-11T07:31:54.642Z,2.80
2023-02-11T07:34:21.761Z,2.80
2023-02-11T07:36:49.190Z,2.80
2023-02-11T07:39:15.990Z,2.80
2023-02-11T07:41:44.497Z,2.80
2023-02-11T07:44:13.696Z,2.80
2023-02-11T07:46:45.034Z,2.80
2023-02-11T07:49:12.661Z,2.80
2023-02-11T07:51:40.040Z,2.80
2023-02-11T07:54:06.826Z,2.80
2023-02-11T07:56:34.247Z,2.80
2023-02-11T07:59:06.285Z,2.80
2023-02-11T08:01:33.559Z,2.80
2023-02-11T08:04:02.298Z,2.80
2023-02-11T08:06:32.995Z,2.80
2023-02-11T08:09:05.693Z,2.80
2023-02-11T08:11:33.423Z,2.80
2023-02-11T08:14:00.723Z,2.70
2023-02-11T08:16:30.740Z,2.70
2023-02-11T08:19:01.044Z,2.70
2023-02-11T08:21:28.780Z,2.60
2023-02-11T08:23:56.503Z,2.70
2023-02-11T08:26:29.609Z,2.60
2023-02-11T08:28:57.573Z,2.60
2023-02-11T08:31:27.514Z,2.50
2023-02-11T08:33:57.892Z,2.50
2023-02-11T08:36:29.357Z,2.50
2023-02-11T08:39:16.069Z,2.50
2023-02-11T08:41:45.764Z,2.50
2023-02-11T08:44:12.927Z,2.50
2023-02-11T08:46:39.962Z,2.50
2023-02-11T08:49:07.094Z,2.50
2023-02-11T08:51:34.439Z,2.50
2023-02-11T08:54:01.592Z,2.50
2023-02-11T08:56:28.986Z,2.50
2023-02-11T08:58:56.024Z,2.50
2023-02-11T09:01:30.990Z,2.50
2023-02-11T09:03:59.304Z,2.50
2023-02-11T09:06:27.534Z,2.60
2023-02-11T09:08:56.373Z,2.60
2023-02-11T09:11:29.771Z,2.60
2023-02-11T09:13:56.768Z,2.60
2023-02-11T09:16:31.529Z,2.60
2023-02-11T09:18:59.873Z,2.60
2023-02-11T09:21:27.539Z,2.60
2023-02-11T09:23:54.744Z,2.70
2023-02-11T09:26:25.016Z,2.70
2023-02-11T09:28:51.997Z,2.70
2023-02-11T09:31:22.120Z,2.80
2023-02-11T09:33:51.467Z,2.80
2023-02-11T09:36:23.866Z,2.80
2023-02-11T09:38:50.744Z,2.80
2023-02-11T09:41:23.775Z,2.80
2023-02-11T09:44:04.900Z,2.80
2023-02-11T09:46:36.610Z,2.90
2023-02-11T09:49:05.071Z,2.90
2023-02-11T09:51:47.303Z,2.90
2023-02-11T09:54:28.232Z,2.90
2023-02-11T09:56:55.197Z,3.00
2023-02-11T09:59:23.349Z,3.00
2023-02-11T10:02:27.253Z,3.00
2023-02-11T10:05:21.757Z,3.10
2023-02-11T10:07:58.745Z,3.10
2023-02-11T10:11:00.374Z,3.20
2023-02-11T10:13:45.096Z,3.20
2023-02-11T10:16:58.926Z,3.20
2023-02-11T10:19:38.026Z,3.20
2023-02-11T10:22:28.211Z,3.10
2023-02-11T10:24:59.883Z,3.10
2023-02-11T10:27:35.762Z,2.80
2023-02-11T10:30:28.323Z,3.00
2023-02-11T10:33:11.987Z,3.00
2023-02-11T10:35:39.148Z,3.00
2023-02-11T10:38:09.057Z,3.00
2023-02-11T10:40:37.344Z,3.00
2023-02-11T10:43:12.931Z,3.00
2023-02-11T10:45:59.627Z,3.00
2023-02-11T10:48:49.505Z,3.00
2023-02-11T10:51:34.265Z,3.00
2023-02-11T10:54:04.304Z,3.00
2023-02-11T10:56:41.019Z,3.00
2023-02-11T10:59:14.915Z,2.90
2023-02-11T11:01:47.023Z,3.00
2023-02-11T11:04:39.127Z,3.00
2023-02-11T11:07:27.578Z,3.00
2023-02-11T11:10:02.657Z,3.00
2023-02-11T11:12:50.281Z,3.10
2023-02-11T11:15:20.021Z,3.10
2023-02-11T11:17:47.311Z,3.10
2023-02-11T11:20:27.606Z,3.10
2023-02-11T11:23:10.693Z,3.20
2023-02-11T11:25:41.301Z,3.20
2023-02-11T11:28:21.147Z,3.30
2023-02-11T11:30:49.269Z,3.30
2023-02-11T11:33:25.886Z,3.30
2023-02-11T11:36:12.706Z,3.30
2023-02-11T11:38:55.452Z,3.40
2023-02-11T11:41:34.403Z,3.40
2023-02-11T11:44:19.948Z,3.50
2023-02-11T11:46:52.377Z,3.50
2023-02-11T11:49:33.178Z,3.50
2023-02-11T11:52:18.160Z,3.50
2023-02-11T11:54:52.048Z,3.50
2023-02-11T11:57:22.447Z,3.50
2023-02-11T11:59:49.401Z,3.50
2023-02-11T12:02:38.314Z,3.50
2023-02-11T12:05:27.640Z,3.50
2023-02-11T12:08:16.457Z,3.50
2023-02-11T12:11:01.903Z,3.50
2023-02-11T12:14:05.985Z,3.50
2023-02-11T12:16:42.052Z,3.50
2023-02-11T12:19:43.168Z,3.60
2023-02-11T12:22:19.110Z,3.60
2023-02-11T12:25:04.861Z,3.60
2023-02-11T12:28:27.981Z,3.60
2023-02-11T12:30:54.846Z,3.60
2023-02-11T12:33:36.185Z,3.80
2023-02-11T12:36:26.318Z,3.70
2023-02-11T12:39:07.434Z,3.70
2023-02-11T12:42:10.684Z,3.80
2023-02-11T12:44:57.555Z,3.80
2023-02-11T12:47:49.640Z,3.90
2023-02-11T12:50:36.805Z,3.90
2023-02-11T12:53:06.306Z,3.90
2023-02-11T12:55:40.232Z,3.90
2023-02-11T12:58:18.341Z,3.90
2023-02-11T13:00:53.800Z,4.00
2023-02-11T13:03:33.174Z,4.00
2023-02-11T13:06:05.399Z,4.00
2023-02-11T13:08:46.138Z,4.10
2023-02-11T13:11:37.483Z,4.10
2023-02-11T13:14:31.506Z,4.20
2023-02-11T13:16:59.153Z,4.20
2023-02-11T13:19:44.075Z,4.20
2023-02-11T13:22:15.742Z,4.30
2023-02-11T13:25:02.159Z,4.20
2023-02-11T13:27:59.797Z,4.30
2023-02-11T13:30:34.089Z,4.30
2023-02-11T13:33:01.068Z,4.30
2023-02-11T13:35:33.995Z,6.60
2023-02-11T13:38:06.585Z,4.30
2023-02-11T13:40:37.017Z,4.30
2023-02-11T13:43:06.633Z,4.40
2023-02-11T13:45:51.542Z,4.40
2023-02-11T13:48:24.582Z,4.40
2023-02-11T13:50:55.754Z,4.40
2023-02-11T13:53:23.741Z,4.40
2023-02-11T13:55:52.887Z,4.40
2023-02-11T13:58:37.273Z,4.40
2023-02-11T14:01:04.553Z,4.40
2023-02-11T14:03:53.069Z,4.40
2023-02-11T14:06:41.787Z,4.40
2023-02-11T14:09:14.251Z,4.40
2023-02-11T14:11:41.513Z,4.50
2023-02-11T14:14:16.725Z,4.50
2023-02-11T14:16:59.030Z,4.50
2023-02-11T14:19:33.753Z,4.50
2023-02-11T14:22:31.736Z,4.50
2023-02-11T14:25:04.696Z,4.50
2023-02-11T14:27:41.596Z,4.50
2023-02-11T14:30:34.013Z,4.50
2023-02-11T14:33:06.612Z,4.50
2023-02-11T14:35:56.450Z,4.50
2023-02-11T14:38:49.690Z,4.50
2023-02-11T14:41:22.789Z,4.40
2023-02-11T14:43:53.724Z,4.40
2023-02-11T14:46:21.729Z,4.40
2023-02-11T14:48:53.322Z,4.40
2023-02-11T14:51:26.787Z,4.40
2023-02-11T14:54:01.508Z,4.40
2023-02-11T14:56:31.166Z,4.40
2023-02-11T14:58:58.477Z,4.40
2023-02-11T15:01:34.029Z,4.40
2023-02-11T15:04:03.850Z,4.40
2023-02-11T15:06:38.307Z,4.40
2023-02-11T15:09:29.389Z,4.40
2023-02-11T15:11:58.749Z,4.40
2023-02-11T15:14:33.040Z,4.50
2023-02-11T15:17:03.273Z,4.50
2023-02-11T15:19:36.669Z,4.50
2023-02-11T15:22:18.397Z,4.50
2023-02-11T15:24:45.552Z,4.50
2023-02-11T15:27:16.690Z,4.40
2023-02-11T15:29:47.174Z,4.40
2023-02-11T15:32:17.251Z,4.40
2023-02-11T15:34:45.956Z,4.40
2023-02-11T15:37:33.286Z,4.40
2023-02-11T15:40:16.073Z,4.40
2023-02-11T15:43:07.825Z,4.40
2023-02-11T15:46:01.616Z,4.40
2023-02-11T15:48:43.023Z,4.40
2023-02-11T15:51:38.709Z,4.50
2023-02-11T15:54:15.004Z,4.40
2023-02-11T15:56:45.523Z,4.40
2023-02-11T15:59:25.951Z,4.50
2023-02-11T16:01:54.640Z,4.50
2023-02-11T16:04:24.752Z,4.50
2023-02-11T16:06:55.282Z,5.20
2023-02-11T16:09:34.367Z,4.50
2023-02-11T16:12:23.951Z,4.50
2023-02-11T16:14:50.809Z,4.50
2023-02-11T16:17:29.594Z,4.60
2023-02-11T16:19:57.716Z,4.70
2023-02-11T16:22:35.488Z,4.00
2023-02-11T16:25:02.932Z,4.50
2023-02-11T16:27:53.660Z,4.50
2023-02-11T16:30:40.515Z,4.50
2023-02-11T16:33:10.925Z,4.50
2023-02-11T16:35:38.358Z,4.50
2023-02-11T16:38:05.390Z,4.90
2023-02-11T16:40:32.221Z,4.50
2023-02-11T16:42:59.092Z,4.50
2023-02-11T16:45:26.831Z,4.50
2023-02-11T16:47:53.680Z,4.50
2023-02-11T16:50:24.941Z,4.50
2023-02-11T16:52:52.936Z,4.50
2023-02-11T16:55:21.927Z,4.50
2023-02-11T16:57:49.728Z,4.50
2023-02-11T17:00:18.062Z,4.50
2023-02-11T17:02:44.918Z,4.50
2023-02-11T17:05:19.947Z,4.50
2023-02-11T17:07:47.023Z,4.50
2023-02-11T17:10:24.165Z,4.50
2023-02-11T17:12:52.535Z,4.50
2023-02-11T17:15:19.310Z,4.50
2023-02-11T17:17:46.072Z,4.50
2023-02-11T17:20:14.197Z,4.50
2023-02-11T17:22:41.351Z,4.50
2023-02-11T17:25:08.850Z,4.50
2023-02-11T17:27:35.641Z,4.50
2023-02-11T17:30:02.418Z,4.50
2023-02-11T17:32:29.156Z,4.50
2023-02-11T17:34:55.924Z,4.50
2023-02-11T17:37:22.637Z,4.50
2023-02-11T17:39:50.714Z,4.50
2023-02-11T17:42:19.200Z,5.70
2023-02-11T17:44:46.492Z,4.50
2023-02-11T17:47:13.456Z,4.50
2023-02-11T17:49:40.521Z,4.60
2023-02-11T17:52:07.358Z,4.60
2023-02-11T17:54:34.705Z,4.60
2023-02-11T17:57:01.495Z,4.60
2023-02-11T17:59:31.708Z,4.60
2023-02-11T18:01:58.531Z,4.60
2023-02-11T18:04:25.314Z,4.60
2023-02-11T18:06:53.627Z,4.60
2023-02-11T18:09:20.614Z,4.50
2023-02-11T18:11:48.484Z,4.60
2023-02-11T18:14:15.317Z,4.60
2023-02-11T18:16:44.804Z,4.60
2023-02-11T18:19:12.879Z,4.50
2023-02-11T18:21:39.836Z,4.50
2023-02-11T18:24:07.324Z,4.50
2023-02-11T18:26:35.154Z,4.10
2023-02-11T18:29:03.855Z,4.50
2023-02-11T18:31:30.833Z,4.50
2023-02-11T18:33:57.893Z,4.50
2023-02-11T18:36:24.677Z,4.50
2023-02-11T18:38:53.395Z,4.60
2023-02-11T18:41:20.881Z,4.50
2023-02-11T18:43:47.704Z,4.50
2023-02-11T18:46:15.813Z,6.40
2023-02-11T18:48:44.861Z,4.50
2023-02-11T18:51:14.775Z,4.50
2023-02-11T18:53:42.445Z,4.40
2023-02-11T18:56:18.716Z,4.50
2023-02-11T18:58:45.533Z,4.50
2023-02-11T19:01:17.171Z,4.50
2023-02-11T19:03:45.792Z,4.50
2023-02-11T19:06:18.555Z,4.50
2023-02-11T19:13:41.949Z,4.50
2023-02-11T19:16:11.468Z,4.50
2023-02-11T19:18:39.128Z,3.70
2023-02-11T19:21:12.910Z,5.30
2023-02-11T19:23:40.062Z,4.50
2023-02-11T19:26:08.397Z,4.60
2023-02-11T19:28:37.113Z,4.60
2023-02-11T19:31:08.838Z,4.60
2023-02-11T19:33:36.027Z,4.60
2023-02-11T19:36:08.243Z,4.60
2023-02-11T19:38:35.700Z,4.60
2023-02-11T19:41:03.017Z,4.60
2023-02-11T19:43:31.153Z,4.60
2023-02-11T19:48:26.018Z,4.70
2023-02-11T19:50:53.427Z,4.70
2023-02-11T19:53:20.812Z,4.70
2023-02-11T19:55:47.955Z,4.70
2023-02-11T19:58:16.272Z,4.60
2023-02-11T20:00:43.436Z,4.70
2023-02-11T20:03:10.164Z,4.80
2023-02-11T20:05:42.413Z,4.80
2023-02-11T20:08:09.275Z,4.70
2023-02-11T20:10:36.014Z,4.70
2023-02-11T20:13:03.985Z,4.80
2023-02-11T20:15:31.126Z,4.80
2023-02-11T20:17:57.980Z,5.90
2023-02-11T20:20:25.143Z,4.80
2023-02-11T20:22:52.214Z,4.80
2023-02-11T20:30:14.467Z,4.70
2023-02-11T20:32:41.276Z,4.80
2023-02-11T20:35:09.173Z,6.60
2023-02-11T20:37:36.013Z,4.80
2023-02-11T20:40:02.955Z,4.80
2023-02-11T20:42:30.540Z,4.80
2023-02-11T20:44:57.467Z,4.80
2023-02-11T20:47:24.178Z,4.80
2023-02-11T20:49:51.154Z,4.80
2023-02-11T20:52:17.923Z,4.80
2023-02-11T20:54:44.996Z,4.80
2023-02-11T20:57:12.150Z,4.90
2023-02-11T20:59:38.901Z,4.90
2023-02-11T21:02:05.692Z,5.30
2023-02-11T21:04:32.855Z,4.90
2023-02-11T21:07:01.813Z,5.00
2023-02-11T21:09:32.316Z,5.00
2023-02-11T21:11:59.492Z,5.00
2023-02-11T21:14:28.604Z,6.20
2023-02-11T21:16:55.785Z,5.00
2023-02-11T21:19:22.591Z,5.00
2023-02-11T21:21:49.673Z,5.00
2023-02-11T21:24:16.528Z,5.00
2023-02-11T21:26:43.520Z,4.50
2023-02-11T21:29:11.926Z,5.00
2023-02-11T21:31:40.036Z,5.00
2023-02-11T21:34:07.572Z,5.00
2023-02-11T21:36:34.608Z,4.90
2023-02-11T21:39:04.000Z,4.90
2023-02-11T21:41:33.244Z,4.90
2023-02-11T21:44:00.825Z,4.90
2023-02-11T21:46:28.892Z,5.00
2023-02-11T21:48:58.127Z,4.90
2023-02-11T21:51:26.274Z,4.90
2023-02-11T21:54:01.474Z,5.00
2023-02-11T21:56:30.562Z,5.00
2023-02-11T21:58:59.063Z,4.90
2023-02-11T22:01:30.976Z,4.90
2023-02-11T22:03:58.663Z,4.90
2023-02-11T22:06:30.713Z,4.90
2023-02-11T22:08:58.103Z,4.90
2023-02-11T22:11:25.542Z,4.90
2023-02-11T22:13:56.335Z,4.90
2023-02-11T22:16:24.352Z,4.80
2023-02-11T22:18:53.517Z,4.70
2023-02-11T22:21:22.579Z,4.80
2023-02-11T22:23:50.774Z,4.70
2023-02-11T22:26:24.419Z,4.60
2023-02-11T22:28:53.727Z,4.60
2023-02-11T22:31:27.844Z,4.60
2023-02-11T22:33:56.829Z,4.50
2023-02-11T22:36:35.426Z,4.50
2023-02-11T22:39:05.719Z,4.40
2023-02-11T22:41:33.235Z,4.40
2023-02-11T22:44:01.250Z,4.10
2023-02-11T22:46:28.267Z,4.30
2023-02-11T22:48:55.192Z,4.30
2023-02-11T22:51:28.406Z,4.30
2023-02-11T22:54:00.915Z,4.20
2023-02-11T22:56:30.323Z,4.20
2023-02-11T22:59:00.030Z,4.20
2023-02-11T23:01:27.992Z,4.10
2023-02-11T23:03:56.560Z,4.10
2023-02-11T23:06:25.418Z,4.00
2023-02-11T23:08:52.618Z,4.00
2023-02-11T23:11:23.905Z,3.90
2023-02-11T23:13:52.498Z,3.90
2023-02-11T23:16:22.009Z,3.80
2023-02-11T23:18:49.722Z,3.80
2023-02-11T23:21:23.422Z,3.80
2023-02-11T23:23:55.346Z,3.70
2023-02-11T23:26:22.391Z,3.70
2023-02-11T23:28:49.755Z,3.60
2023-02-11T23:31:23.436Z,3.60
2023-02-11T23:33:50.768Z,3.60
2023-02-11T23:36:19.692Z,3.50
2023-02-11T23:38:47.369Z,3.40
2023-02-11T23:41:16.731Z,4.50
2023-02-11T23:43:44.328Z,3.40
2023-02-11T23:46:11.742Z,3.40
2023-02-11T23:48:40.481Z,3.30
2023-02-11T23:51:09.693Z,3.30
2023-02-11T23:53:40.465Z,3.30
2023-02-11T23:56:16.289Z,3.50
2023-02-11T23:58:44.829Z,3.20
